createdAt,value
2018-01-03T00:00:08.022Z,1001.08
2018-01-03T00:01:59.788Z,1001.06
2018-01-03T00:02:59.738Z,1000.99
2018-01-03T00:04:51.481Z,1000.96
2018-01-03T00:05:51.403Z,1000.95
2018-01-03T00:07:43.166Z,1000.83
2018-01-03T00:08:43.075Z,1000.75
2018-01-03T00:10:35.542Z,1000.60
2018-01-03T00:11:34.778Z,1000.56
2018-01-03T00:13:26.545Z,1000.49
2018-01-03T00:14:26.490Z,1000.42
2018-01-03T00:16:18.285Z,1000.38
2018-01-03T00:17:18.219Z,1000.34
2018-01-03T00:19:09.972Z,1000.28
2018-01-03T00:20:09.907Z,1000.24
2018-01-03T00:22:01.676Z,1000.22
2018-01-03T00:23:01.594Z,1000.24
2018-01-03T00:24:53.342Z,1000.21
2018-01-03T00:25:53.339Z,1000.21
2018-01-03T00:27:45.104Z,1000.18
2018-01-03T00:28:45.010Z,1000.17
2018-01-03T00:30:36.749Z,1000.14
2018-01-03T00:31:36.690Z,1000.09
2018-01-03T00:33:29.085Z,1000.02
2018-01-03T00:34:28.711Z,1000.03
2018-01-03T00:36:20.578Z,999.97
2018-01-03T00:37:20.433Z,999.97
2018-01-03T00:39:12.880Z,999.89
2018-01-03T00:40:12.184Z,999.87
2018-01-03T00:42:03.919Z,999.77
2018-01-03T00:43:03.853Z,999.73
2018-01-03T00:44:55.617Z,999.64
2018-01-03T00:45:55.543Z,999.65
2018-01-03T00:47:47.311Z,999.54
2018-01-03T00:48:47.242Z,999.51
2018-01-03T00:50:38.980Z,999.37
2018-01-03T00:51:38.918Z,999.35
2018-01-03T00:53:30.658Z,999.27
2018-01-03T00:54:30.659Z,999.27
2018-01-03T00:56:22.390Z,999.26
2018-01-03T00:57:22.312Z,999.33
2018-01-03T00:59:14.071Z,999.22
2018-01-03T01:00:13.996Z,999.20
2018-01-03T01:02:05.756Z,999.12
2018-01-03T01:03:05.663Z,999.09
2018-01-03T01:04:57.416Z,999.06
2018-01-03T01:05:57.329Z,999.05
2018-01-03T01:07:49.095Z,999.07
2018-01-03T01:08:49.065Z,998.95
2018-01-03T01:10:40.869Z,998.84
2018-01-03T01:11:40.821Z,998.76
2018-01-03T01:13:32.608Z,998.69
2018-01-03T01:14:32.527Z,998.70
2018-01-03T01:16:24.337Z,998.68
2018-01-03T01:17:24.245Z,998.75
2018-01-03T01:19:16.061Z,998.67
2018-01-03T01:20:15.963Z,998.60
2018-01-03T01:22:07.726Z,998.58
2018-01-03T01:23:07.669Z,998.55
2018-01-03T01:24:59.391Z,998.43
2018-01-03T01:25:59.335Z,998.43
2018-01-03T01:27:51.062Z,998.31
2018-01-03T01:28:50.990Z,998.22
2018-01-03T01:30:42.936Z,998.19
2018-01-03T01:31:42.681Z,998.17
2018-01-03T01:33:34.519Z,998.16
2018-01-03T01:34:34.406Z,998.11
2018-01-03T01:36:26.214Z,998.08
2018-01-03T01:37:26.134Z,997.98
2018-01-03T01:39:17.911Z,997.92
2018-01-03T01:40:17.835Z,997.84
2018-01-03T01:42:09.720Z,997.78
2018-01-03T01:43:09.616Z,997.77
2018-01-03T01:45:01.520Z,997.67
2018-01-03T01:46:01.236Z,997.63
2018-01-03T01:47:53.039Z,997.62
2018-01-03T01:48:53.002Z,997.57
2018-01-03T01:50:44.715Z,997.56
2018-01-03T01:51:44.665Z,997.55
2018-01-03T01:53:36.406Z,997.46
2018-01-03T01:54:36.366Z,997.41
2018-01-03T01:56:28.139Z,997.23
2018-01-03T01:57:28.059Z,997.21
2018-01-03T01:59:19.900Z,997.21
2018-01-03T02:00:19.781Z,997.10
2018-01-03T02:02:11.529Z,996.98
2018-01-03T02:03:11.455Z,996.89
2018-01-03T02:05:03.201Z,996.82
2018-01-03T02:06:03.137Z,996.80
2018-01-03T02:07:54.944Z,996.74
2018-01-03T02:08:54.876Z,996.69
2018-01-03T02:10:46.665Z,996.62
2018-01-03T02:11:46.581Z,996.53
2018-01-03T02:13:38.504Z,996.47
2018-01-03T02:14:38.362Z,996.48
2018-01-03T02:16:30.096Z,996.44
2018-01-03T02:17:30.026Z,996.37
2018-01-03T02:19:21.927Z,996.32
2018-01-03T02:20:21.722Z,996.38
2018-01-03T02:22:13.512Z,996.29
2018-01-03T02:23:13.452Z,996.27
2018-01-03T02:25:05.176Z,996.25
2018-01-03T02:26:05.117Z,996.19
2018-01-03T02:27:56.885Z,996.18
2018-01-03T02:28:56.802Z,996.12
2018-01-03T02:30:48.663Z,996.05
2018-01-03T02:31:48.570Z,996.06
2018-01-03T02:33:40.420Z,995.91
2018-01-03T02:34:40.278Z,995.88
2018-01-03T02:36:32.005Z,995.72
2018-01-03T02:37:31.922Z,995.67
2018-01-03T02:39:23.715Z,995.55
2018-01-03T02:40:23.643Z,995.48
2018-01-03T02:42:15.439Z,995.41
2018-01-03T02:43:15.383Z,995.34
2018-01-03T02:45:07.119Z,995.32
2018-01-03T02:46:07.106Z,995.19
2018-01-03T02:47:58.902Z,995.08
2018-01-03T02:48:58.830Z,994.98
2018-01-03T02:50:50.575Z,994.92
2018-01-03T02:51:50.521Z,994.87
2018-01-03T02:53:42.393Z,994.82
2018-01-03T02:54:42.314Z,994.79
2018-01-03T02:56:34.175Z,994.72
2018-01-03T02:57:34.142Z,994.65
2018-01-03T02:59:25.815Z,994.61
2018-01-03T03:00:25.739Z,994.60
2018-01-03T03:02:17.580Z,994.45
2018-01-03T03:03:17.498Z,994.46
2018-01-03T03:05:09.276Z,994.41
2018-01-03T03:06:09.193Z,994.31
2018-01-03T03:08:01.036Z,994.19
2018-01-03T03:09:00.907Z,994.14
2018-01-03T03:10:52.866Z,994.16
2018-01-03T03:11:52.580Z,994.08
2018-01-03T03:13:44.474Z,994.05
2018-01-03T03:14:44.252Z,994.08
2018-01-03T03:16:36.066Z,993.91
2018-01-03T03:17:35.971Z,993.85
2018-01-03T03:19:27.685Z,993.80
2018-01-03T03:20:27.613Z,993.74
2018-01-03T03:22:19.485Z,993.60
2018-01-03T03:23:19.341Z,993.57
2018-01-03T03:25:11.155Z,993.46
2018-01-03T03:26:11.051Z,993.41
2018-01-03T03:28:02.847Z,993.38
2018-01-03T03:29:02.768Z,993.30
2018-01-03T03:30:54.617Z,993.25
2018-01-03T03:31:54.496Z,993.22
2018-01-03T03:33:46.398Z,993.30
2018-01-03T03:34:46.319Z,993.17
2018-01-03T03:36:38.032Z,993.17
2018-01-03T03:37:37.953Z,993.11
2018-01-03T03:39:29.732Z,993.02
2018-01-03T03:40:29.663Z,992.92
2018-01-03T03:42:21.446Z,992.93
2018-01-03T03:43:21.373Z,992.91
2018-01-03T03:45:13.121Z,992.86
2018-01-03T03:46:13.021Z,992.74
2018-01-03T03:48:04.828Z,992.68
2018-01-03T03:49:04.823Z,992.65
2018-01-03T03:50:56.539Z,992.63
2018-01-03T03:51:56.428Z,992.56
2018-01-03T03:53:48.257Z,992.51
2018-01-03T03:54:48.154Z,992.47
2018-01-03T03:56:39.961Z,992.44
2018-01-03T03:57:39.874Z,992.37
2018-01-03T03:59:31.702Z,992.28
2018-01-03T04:00:31.607Z,992.27
2018-01-03T04:02:23.479Z,992.18
2018-01-03T04:03:23.422Z,992.12
2018-01-03T04:05:15.212Z,992.04
2018-01-03T04:06:15.190Z,992.01
2018-01-03T04:08:06.953Z,991.85
2018-01-03T04:09:06.873Z,991.84
2018-01-03T04:10:58.619Z,991.67
2018-01-03T04:11:58.586Z,991.58
2018-01-03T04:13:50.412Z,991.44
2018-01-03T04:14:50.346Z,991.39
2018-01-03T04:16:42.107Z,991.27
2018-01-03T04:17:42.025Z,991.24
2018-01-03T04:19:33.759Z,991.06
2018-01-03T04:20:33.690Z,991.05
2018-01-03T04:22:25.445Z,990.97
2018-01-03T04:23:25.409Z,991.00
2018-01-03T04:25:17.162Z,990.94
2018-01-03T04:26:17.105Z,990.82
2018-01-03T04:28:08.985Z,990.64
2018-01-03T04:29:08.911Z,990.60
2018-01-03T04:31:00.690Z,990.49
2018-01-03T04:32:00.662Z,990.49
2018-01-03T04:33:52.431Z,990.36
2018-01-03T04:34:52.304Z,990.37
2018-01-03T04:36:44.124Z,990.29
2018-01-03T04:37:44.022Z,990.18
2018-01-03T04:39:35.800Z,990.23
2018-01-03T04:40:35.696Z,990.25
2018-01-03T04:42:27.478Z,990.13
2018-01-03T04:43:27.392Z,990.08
2018-01-03T04:45:19.213Z,990.08
2018-01-03T04:46:19.208Z,989.98
2018-01-03T04:48:11.022Z,989.92
2018-01-03T04:49:10.809Z,989.90
2018-01-03T04:51:02.573Z,989.82
2018-01-03T04:52:02.502Z,989.78
2018-01-03T04:53:54.351Z,989.52
2018-01-03T04:54:54.198Z,989.46
2018-01-03T04:56:46.586Z,989.26
2018-01-03T04:57:46.055Z,989.16
2018-01-03T04:59:37.853Z,989.03
2018-01-03T05:00:37.835Z,988.96
2018-01-03T05:02:29.659Z,988.75
2018-01-03T05:03:29.507Z,988.70
2018-01-03T05:05:21.280Z,988.73
2018-01-03T05:06:21.261Z,988.69
2018-01-03T05:08:13.011Z,988.71
2018-01-03T05:09:12.927Z,988.70
2018-01-03T05:11:04.719Z,988.61
2018-01-03T05:12:04.654Z,988.66
2018-01-03T05:13:57.071Z,988.53
2018-01-03T05:14:56.375Z,988.47
2018-01-03T05:16:48.174Z,988.37
2018-01-03T05:17:48.138Z,988.35
2018-01-03T05:19:39.911Z,988.26
2018-01-03T05:20:39.933Z,988.22
2018-01-03T05:22:31.790Z,988.03
2018-01-03T05:23:31.564Z,988.00
2018-01-03T05:25:23.326Z,987.89
2018-01-03T05:26:23.269Z,987.82
2018-01-03T05:28:15.104Z,987.84
2018-01-03T05:29:15.005Z,987.73
2018-01-03T05:31:06.747Z,987.64
2018-01-03T05:32:06.704Z,987.59
2018-01-03T05:33:58.478Z,987.59
2018-01-03T05:34:58.436Z,987.48
2018-01-03T05:36:50.181Z,987.59
2018-01-03T05:37:50.100Z,987.64
2018-01-03T05:39:41.967Z,987.67
2018-01-03T05:40:41.871Z,987.62
2018-01-03T05:42:33.642Z,987.64
2018-01-03T05:43:33.622Z,987.63
2018-01-03T05:45:25.382Z,987.52
2018-01-03T05:46:25.259Z,987.47
2018-01-03T05:48:17.016Z,987.38
2018-01-03T05:49:17.021Z,987.35
2018-01-03T05:51:08.767Z,987.29
2018-01-03T05:52:08.619Z,987.17
2018-01-03T05:54:00.533Z,987.07
2018-01-03T05:55:00.342Z,987.08
2018-01-03T05:56:52.100Z,986.98
2018-01-03T05:57:52.023Z,986.84
2018-01-03T05:59:43.912Z,986.85
2018-01-03T06:00:43.766Z,986.71
2018-01-03T06:02:35.585Z,986.57
2018-01-03T06:03:35.475Z,986.60
2018-01-03T06:05:27.255Z,986.50
2018-01-03T06:06:27.265Z,986.46
2018-01-03T06:08:19.067Z,986.40
2018-01-03T06:09:18.919Z,986.33
2018-01-03T06:11:10.817Z,986.30
2018-01-03T06:12:10.615Z,986.28
2018-01-03T06:14:02.387Z,986.08
2018-01-03T06:15:02.328Z,986.13
2018-01-03T06:16:54.037Z,985.90
2018-01-03T06:17:53.948Z,985.83
2018-01-03T06:19:45.687Z,985.66
2018-01-03T06:20:45.618Z,985.64
2018-01-03T06:22:37.477Z,985.37
2018-01-03T06:23:37.375Z,985.35
2018-01-03T06:25:29.204Z,985.20
2018-01-03T06:26:29.114Z,985.16
2018-01-03T06:28:20.899Z,985.06
2018-01-03T06:29:20.836Z,985.01
2018-01-03T06:31:12.668Z,984.86
2018-01-03T06:32:12.606Z,984.80
2018-01-03T06:34:04.465Z,984.76
2018-01-03T06:35:04.364Z,984.65
2018-01-03T06:36:56.195Z,984.56
2018-01-03T06:37:56.069Z,984.53
2018-01-03T06:39:47.806Z,984.53
2018-01-03T06:40:47.751Z,984.56
2018-01-03T06:42:39.590Z,984.44
2018-01-03T06:43:39.502Z,984.38
2018-01-03T06:45:31.337Z,984.31
2018-01-03T06:46:31.284Z,984.14
2018-01-03T06:48:23.200Z,984.20
2018-01-03T06:49:23.144Z,984.19
2018-01-03T06:51:15.023Z,984.05
2018-01-03T06:52:14.954Z,983.99
2018-01-03T06:54:06.820Z,984.00
2018-01-03T06:55:06.752Z,983.89
2018-01-03T06:56:58.548Z,983.89
2018-01-03T06:57:58.492Z,983.84
2018-01-03T06:59:50.253Z,983.54
2018-01-03T07:00:50.178Z,983.45
2018-01-03T07:02:42.007Z,983.33
2018-01-03T07:03:41.949Z,983.35
2018-01-03T07:05:33.735Z,983.23
2018-01-03T07:06:33.651Z,983.21
2018-01-03T07:08:25.445Z,983.03
2018-01-03T07:09:25.417Z,983.00
2018-01-03T07:11:17.108Z,982.99
2018-01-03T07:12:17.043Z,982.94
2018-01-03T07:14:08.799Z,982.93
2018-01-03T07:15:08.739Z,982.95
2018-01-03T07:17:00.489Z,982.90
2018-01-03T07:18:00.462Z,982.92
2018-01-03T07:19:52.210Z,982.74
2018-01-03T07:20:52.121Z,982.74
2018-01-03T07:22:43.835Z,982.64
2018-01-03T07:23:43.771Z,982.67
2018-01-03T07:25:35.724Z,982.52
2018-01-03T07:26:35.444Z,982.42
2018-01-03T07:28:27.339Z,982.46
2018-01-03T07:29:27.122Z,982.33
2018-01-03T07:31:18.964Z,982.40
2018-01-03T07:32:18.879Z,982.40
2018-01-03T07:34:10.656Z,982.30
2018-01-03T07:35:10.606Z,982.30
2018-01-03T07:37:02.361Z,982.34
2018-01-03T07:38:02.273Z,982.32
2018-01-03T07:39:54.004Z,982.19
2018-01-03T07:40:53.917Z,982.15
2018-01-03T07:42:45.771Z,982.13
2018-01-03T07:43:45.767Z,982.07
2018-01-03T07:45:37.548Z,982.10
2018-01-03T07:46:37.385Z,982.02
2018-01-03T07:48:29.505Z,981.95
2018-01-03T07:49:29.138Z,981.99
2018-01-03T07:51:20.902Z,981.82
2018-01-03T07:52:20.823Z,981.74
2018-01-03T07:54:12.576Z,981.74
2018-01-03T07:55:12.585Z,981.79
2018-01-03T07:57:04.252Z,981.66
2018-01-03T07:58:04.178Z,981.58
2018-01-03T07:59:55.926Z,981.62
2018-01-03T08:00:55.846Z,981.56
2018-01-03T08:02:47.810Z,981.52
2018-01-03T08:03:47.677Z,981.54
2018-01-03T08:05:39.410Z,981.38
2018-01-03T08:06:39.360Z,981.14
2018-01-03T08:08:31.147Z,981.11
2018-01-03T08:09:31.050Z,981.24
2018-01-03T08:11:22.940Z,981.19
2018-01-03T08:12:22.832Z,981.17
2018-01-03T08:14:14.602Z,981.05
2018-01-03T08:15:14.560Z,981.04
2018-01-03T08:17:06.299Z,980.88
2018-01-03T08:18:06.189Z,980.80
2018-01-03T08:19:57.953Z,980.74
2018-01-03T08:20:57.914Z,980.62
2018-01-03T08:22:49.633Z,980.54
2018-01-03T08:23:49.538Z,980.44
2018-01-03T08:25:41.335Z,980.26
2018-01-03T08:26:41.212Z,980.16
2018-01-03T08:28:32.988Z,979.85
2018-01-03T08:29:32.893Z,979.78
2018-01-03T08:31:24.693Z,979.62
2018-01-03T08:32:24.564Z,979.66
2018-01-03T08:34:16.395Z,979.54
2018-01-03T08:35:16.316Z,979.53
2018-01-03T08:37:08.111Z,979.57
2018-01-03T08:38:08.019Z,979.65
2018-01-03T08:39:59.773Z,979.92
2018-01-03T08:40:59.710Z,979.92
2018-01-03T08:42:51.500Z,979.87
2018-01-03T08:43:51.429Z,979.79
2018-01-03T08:45:43.225Z,979.87
2018-01-03T08:46:43.177Z,979.94
2018-01-03T08:48:35.010Z,980.30
2018-01-03T08:49:34.928Z,980.44
2018-01-03T08:51:26.787Z,980.56
2018-01-03T08:52:26.668Z,980.53
2018-01-03T08:54:18.528Z,980.42
2018-01-03T08:55:18.356Z,980.40
2018-01-03T08:57:10.097Z,980.13
2018-01-03T08:58:10.034Z,980.20
2018-01-03T09:00:01.787Z,980.29
2018-01-03T09:01:01.773Z,980.21
2018-01-03T09:02:53.445Z,980.06
2018-01-03T09:03:53.411Z,980.03
2018-01-03T09:05:45.230Z,979.85
2018-01-03T09:06:45.171Z,979.90
2018-01-03T09:08:36.933Z,979.85
2018-01-03T09:09:36.863Z,979.83
2018-01-03T09:11:28.746Z,979.93
2018-01-03T09:12:28.604Z,979.82
2018-01-03T09:14:20.449Z,979.76
2018-01-03T09:15:20.311Z,979.76
2018-01-03T09:17:12.158Z,979.75
2018-01-03T09:18:11.997Z,979.60
2018-01-03T09:20:03.775Z,979.27
2018-01-03T09:21:03.665Z,979.29
2018-01-03T09:22:55.474Z,979.59
2018-01-03T09:23:55.446Z,979.61
2018-01-03T09:25:47.164Z,979.74
2018-01-03T09:26:47.112Z,979.81
2018-01-03T09:28:38.856Z,979.70
2018-01-03T09:29:38.755Z,979.59
2018-01-03T09:31:30.517Z,979.34
2018-01-03T09:32:30.428Z,979.33
2018-01-03T09:34:22.264Z,979.34
2018-01-03T09:35:22.201Z,979.25
2018-01-03T09:37:14.030Z,979.32
2018-01-03T09:38:13.956Z,979.30
2018-01-03T09:40:05.759Z,979.30
2018-01-03T09:41:05.647Z,979.32
2018-01-03T09:42:57.412Z,979.22
2018-01-03T09:43:57.332Z,979.17
2018-01-03T09:45:49.193Z,979.24
2018-01-03T09:46:49.108Z,979.15
2018-01-03T09:48:40.926Z,979.24
2018-01-03T09:49:40.856Z,979.25
2018-01-03T09:51:32.642Z,979.35
2018-01-03T09:52:32.579Z,979.28
2018-01-03T09:54:24.952Z,979.27
2018-01-03T09:55:24.256Z,979.22
2018-01-03T09:57:16.123Z,979.23
2018-01-03T09:58:16.018Z,979.25
2018-01-03T10:00:07.705Z,979.17
2018-01-03T10:01:07.657Z,979.16
2018-01-03T10:02:59.400Z,979.21
2018-01-03T10:03:59.307Z,979.21
2018-01-03T10:05:51.104Z,979.35
2018-01-03T10:06:51.028Z,979.29
2018-01-03T10:08:42.914Z,979.26
2018-01-03T10:09:42.797Z,979.21
2018-01-03T10:11:34.637Z,979.23
2018-01-03T10:12:34.480Z,979.25
2018-01-03T10:14:26.297Z,979.45
2018-01-03T10:15:26.187Z,979.42
2018-01-03T10:17:17.908Z,979.52
2018-01-03T10:18:17.826Z,979.52
2018-01-03T10:20:09.584Z,979.43
2018-01-03T10:21:09.513Z,979.39
2018-01-03T10:23:01.399Z,979.33
2018-01-03T10:24:01.295Z,979.30
2018-01-03T10:25:53.106Z,979.51
2018-01-03T10:26:53.029Z,979.56
2018-01-03T10:28:45.446Z,979.48
2018-01-03T10:29:44.754Z,979.51
2018-01-03T10:31:36.578Z,979.49
2018-01-03T10:32:36.507Z,979.47
2018-01-03T10:34:28.258Z,979.40
2018-01-03T10:35:28.179Z,979.34
2018-01-03T10:37:19.929Z,979.34
2018-01-03T10:38:19.854Z,979.31
2018-01-03T10:40:11.669Z,979.39
2018-01-03T10:41:11.592Z,979.44
2018-01-03T10:43:03.357Z,979.42
2018-01-03T10:44:03.325Z,979.39
2018-01-03T10:45:55.058Z,979.42
2018-01-03T10:46:54.984Z,979.35
2018-01-03T10:48:47.788Z,979.32
2018-01-03T10:49:47.710Z,979.34
2018-01-03T10:51:39.496Z,979.37
2018-01-03T10:52:39.411Z,979.38
2018-01-03T10:54:31.281Z,979.38
2018-01-03T10:55:31.202Z,979.38
2018-01-03T10:57:23.093Z,979.42
2018-01-03T10:58:22.986Z,979.38
2018-01-03T11:00:14.752Z,979.41
2018-01-03T11:01:14.662Z,979.39
2018-01-03T11:03:06.411Z,979.32
2018-01-03T11:04:06.351Z,979.27
2018-01-03T11:05:58.294Z,979.28
2018-01-03T11:06:58.051Z,979.25
2018-01-03T11:08:49.972Z,979.18
2018-01-03T11:09:49.894Z,979.25
2018-01-03T11:11:41.742Z,979.19
2018-01-03T11:12:41.635Z,979.19
2018-01-03T11:14:33.501Z,979.12
2018-01-03T11:15:33.430Z,979.10
2018-01-03T11:17:25.195Z,979.08
2018-01-03T11:18:25.169Z,979.09
2018-01-03T11:20:18.054Z,979.11
2018-01-03T11:21:17.036Z,979.05
2018-01-03T11:23:08.869Z,979.08
2018-01-03T11:24:08.724Z,979.10
2018-01-03T11:26:00.520Z,978.95
2018-01-03T11:27:00.462Z,978.94
2018-01-03T11:28:52.334Z,978.85
2018-01-03T11:29:52.311Z,978.87
2018-01-03T11:31:44.057Z,978.94
2018-01-03T11:32:43.946Z,979.00
2018-01-03T11:34:36.353Z,979.02
2018-01-03T11:35:35.833Z,979.04
2018-01-03T11:37:28.227Z,978.98
2018-01-03T11:38:27.799Z,979.02
2018-01-03T11:40:19.569Z,979.04
2018-01-03T11:41:19.480Z,979.06
2018-01-03T11:43:12.337Z,979.05
2018-01-03T11:44:12.242Z,978.95
2018-01-03T11:46:04.060Z,978.99
2018-01-03T11:47:03.989Z,979.04
2018-01-03T11:48:55.971Z,979.08
2018-01-03T11:49:55.890Z,979.09
2018-01-03T11:51:47.725Z,979.08
2018-01-03T11:52:47.610Z,979.05
2018-01-03T11:54:39.401Z,979.07
2018-01-03T11:55:39.340Z,979.14
2018-01-03T11:57:31.095Z,979.21
2018-01-03T11:58:31.022Z,979.25
2018-01-03T12:00:22.816Z,979.30
2018-01-03T12:01:22.759Z,979.28
2018-01-03T12:03:14.609Z,979.29
2018-01-03T12:04:14.530Z,979.30
2018-01-03T12:06:06.284Z,979.33
2018-01-03T12:07:06.425Z,979.43
2018-01-03T12:08:57.997Z,979.49
2018-01-03T12:09:57.936Z,979.60
2018-01-03T12:11:49.828Z,979.45
2018-01-03T12:12:49.709Z,979.61
2018-01-03T12:14:41.773Z,979.49
2018-01-03T12:15:41.661Z,979.50
2018-01-03T12:17:33.502Z,979.47
2018-01-03T12:18:33.449Z,979.49
2018-01-03T12:20:25.184Z,979.56
2018-01-03T12:21:25.122Z,979.54
2018-01-03T12:23:16.983Z,979.50
2018-01-03T12:24:16.903Z,979.50
2018-01-03T12:26:08.766Z,979.53
2018-01-03T12:27:08.763Z,979.48
2018-01-03T12:29:00.430Z,979.51
2018-01-03T12:30:00.357Z,979.59
2018-01-03T12:31:52.205Z,979.70
2018-01-03T12:32:52.081Z,979.72
2018-01-03T12:34:43.913Z,979.73
2018-01-03T12:35:43.864Z,979.77
2018-01-03T12:37:36.648Z,979.79
2018-01-03T12:38:36.556Z,979.80
2018-01-03T12:40:29.301Z,979.81
2018-01-03T12:41:29.241Z,979.82
2018-01-03T12:43:21.103Z,979.86
2018-01-03T12:44:21.036Z,979.89
2018-01-03T12:46:12.833Z,979.87
2018-01-03T12:47:12.809Z,979.82
2018-01-03T12:49:04.572Z,979.93
2018-01-03T12:50:04.438Z,979.96
2018-01-03T12:51:56.268Z,979.82
2018-01-03T12:52:56.259Z,979.96
2018-01-03T12:54:48.030Z,979.97
2018-01-03T12:55:47.937Z,980.12
2018-01-03T12:57:39.724Z,980.07
2018-01-03T12:58:39.676Z,980.07
2018-01-03T13:00:31.513Z,980.21
2018-01-03T13:01:31.402Z,980.27
2018-01-03T13:03:23.366Z,980.22
2018-01-03T13:04:23.305Z,980.33
2018-01-03T13:06:15.791Z,980.37
2018-01-03T13:07:14.935Z,980.35
2018-01-03T13:09:06.789Z,980.42
2018-01-03T13:10:06.699Z,980.50
2018-01-03T13:11:58.457Z,980.52
2018-01-03T13:12:58.392Z,980.37
2018-01-03T13:14:50.270Z,980.63
2018-01-03T13:15:50.202Z,980.64
2018-01-03T13:17:41.919Z,980.71
2018-01-03T13:18:41.855Z,980.72
2018-01-03T13:20:33.651Z,980.78
2018-01-03T13:21:33.563Z,980.74
2018-01-03T13:23:26.353Z,980.80
2018-01-03T13:24:26.272Z,980.79
2018-01-03T13:26:18.059Z,980.80
2018-01-03T13:27:17.996Z,980.82
2018-01-03T13:29:09.907Z,980.91
2018-01-03T13:30:09.831Z,980.92
2018-01-03T13:32:01.662Z,980.95
2018-01-03T13:33:01.660Z,981.03
2018-01-03T13:34:53.379Z,980.96
2018-01-03T13:35:53.293Z,980.96
2018-01-03T13:37:45.119Z,980.97
2018-01-03T13:38:45.106Z,980.98
2018-01-03T13:40:36.872Z,981.07
2018-01-03T13:41:36.795Z,981.01
2018-01-03T13:43:29.624Z,981.12
2018-01-03T13:44:29.511Z,981.07
2018-01-03T13:46:21.314Z,981.14
2018-01-03T13:47:21.249Z,981.13
2018-01-03T13:49:13.137Z,981.06
2018-01-03T13:50:13.007Z,981.06
2018-01-03T13:52:05.429Z,981.08
2018-01-03T13:53:04.822Z,981.06
2018-01-03T13:54:56.615Z,981.12
2018-01-03T13:55:56.543Z,981.17
2018-01-03T13:57:48.420Z,981.15
2018-01-03T13:58:48.311Z,981.12
2018-01-03T14:00:40.082Z,981.17
2018-01-03T14:01:40.007Z,981.15
2018-01-03T14:03:32.815Z,981.15
2018-01-03T14:04:32.786Z,981.14
2018-01-03T14:06:25.535Z,981.16
2018-01-03T14:07:25.463Z,981.22
2018-01-03T14:09:17.249Z,981.18
2018-01-03T14:10:17.179Z,981.25
2018-01-03T14:12:09.236Z,981.20
2018-01-03T14:13:09.100Z,981.18
2018-01-03T14:15:00.835Z,981.20
2018-01-03T14:16:00.776Z,981.20
2018-01-03T14:17:52.579Z,981.28
2018-01-03T14:18:52.513Z,981.28
2018-01-03T14:20:44.444Z,981.30
2018-01-03T14:21:44.381Z,981.25
2018-01-03T14:23:36.244Z,981.34
2018-01-03T14:24:36.123Z,981.32
2018-01-03T14:26:27.858Z,981.31
2018-01-03T14:27:27.867Z,981.38
2018-01-03T14:29:19.601Z,981.37
2018-01-03T14:30:19.537Z,981.36
2018-01-03T14:32:11.413Z,981.36
2018-01-03T14:33:11.356Z,981.38
2018-01-03T14:35:03.156Z,981.34
2018-01-03T14:36:03.086Z,981.38
2018-01-03T14:37:54.975Z,981.36
2018-01-03T14:38:54.896Z,981.38
2018-01-03T14:40:46.727Z,981.36
2018-01-03T14:41:46.642Z,981.36
2018-01-03T14:43:38.452Z,981.37
2018-01-03T14:44:38.372Z,981.32
2018-01-03T14:46:30.355Z,981.38
2018-01-03T14:47:30.300Z,981.32
2018-01-03T14:49:22.223Z,981.38
2018-01-03T14:50:22.147Z,981.38
2018-01-03T14:52:14.043Z,981.37
2018-01-03T14:53:13.971Z,981.36
2018-01-03T14:55:05.735Z,981.35
2018-01-03T14:56:05.664Z,981.39
2018-01-03T14:57:57.469Z,981.31
2018-01-03T14:58:57.398Z,981.34
2018-01-03T15:00:49.185Z,981.39
2018-01-03T15:01:49.130Z,981.37
2018-01-03T15:03:41.020Z,981.47
2018-01-03T15:04:40.998Z,981.39
2018-01-03T15:06:33.715Z,981.39
2018-01-03T15:07:33.644Z,981.33
2018-01-03T15:09:25.506Z,981.28
2018-01-03T15:10:25.427Z,981.33
2018-01-03T15:12:17.477Z,981.23
2018-01-03T15:13:17.388Z,981.32
2018-01-03T15:15:09.147Z,981.34
2018-01-03T15:16:09.067Z,981.33
2018-01-03T15:18:00.874Z,981.35
2018-01-03T15:19:00.874Z,981.34
2018-01-03T15:20:52.596Z,981.42
2018-01-03T15:21:52.533Z,981.58
2018-01-03T15:23:44.355Z,981.36
2018-01-03T15:24:44.273Z,981.40
2018-01-03T15:26:36.039Z,981.50
2018-01-03T15:27:36.017Z,981.56
2018-01-03T15:29:27.714Z,981.67
2018-01-03T15:30:27.639Z,981.58
2018-01-03T15:32:20.419Z,981.59
2018-01-03T15:33:20.342Z,981.55
2018-01-03T15:35:13.097Z,981.51
2018-01-03T15:36:13.055Z,981.48
2018-01-03T15:38:04.915Z,981.54
2018-01-03T15:39:04.727Z,981.55
2018-01-03T15:40:56.514Z,981.55
2018-01-03T15:41:56.430Z,981.56
2018-01-03T15:43:48.170Z,981.57
2018-01-03T15:44:48.137Z,981.58
2018-01-03T15:46:39.964Z,981.55
2018-01-03T15:47:39.839Z,981.53
2018-01-03T15:49:31.700Z,981.52
2018-01-03T15:50:31.637Z,981.52
2018-01-03T15:52:23.411Z,981.48
2018-01-03T15:53:23.345Z,981.48
2018-01-03T15:55:15.080Z,981.38
2018-01-03T15:56:15.022Z,981.51
2018-01-03T15:58:06.944Z,981.40
2018-01-03T15:59:06.852Z,981.40
2018-01-03T16:00:58.626Z,981.38
2018-01-03T16:01:58.565Z,981.37
2018-01-03T16:03:50.320Z,981.33
2018-01-03T16:04:50.241Z,981.34
2018-01-03T16:06:42.049Z,981.48
2018-01-03T16:07:42.042Z,981.45
2018-01-03T16:09:33.792Z,981.37
2018-01-03T16:10:33.731Z,981.44
2018-01-03T16:12:25.471Z,981.42
2018-01-03T16:13:25.437Z,981.35
2018-01-03T16:15:17.257Z,981.34
2018-01-03T16:16:17.170Z,981.22
2018-01-03T16:18:08.942Z,981.33
2018-01-03T16:19:08.887Z,981.32
2018-01-03T16:21:00.728Z,981.29
2018-01-03T16:22:00.618Z,981.34
2018-01-03T16:23:52.383Z,981.21
2018-01-03T16:24:52.331Z,981.36
2018-01-03T16:26:44.162Z,981.34
2018-01-03T16:27:44.099Z,981.35
2018-01-03T16:29:35.944Z,981.35
2018-01-03T16:30:35.890Z,981.35
2018-01-03T16:32:28.668Z,981.29
2018-01-03T16:33:28.608Z,981.36
2018-01-03T16:35:22.301Z,981.35
2018-01-03T16:36:22.214Z,981.35
2018-01-03T16:38:13.971Z,981.42
2018-01-03T16:39:13.900Z,981.36
2018-01-03T16:41:05.730Z,981.43
2018-01-03T16:42:05.726Z,981.36
2018-01-03T16:43:57.421Z,981.46
2018-01-03T16:44:57.379Z,981.45
2018-01-03T16:46:50.199Z,981.40
2018-01-03T16:47:49.184Z,981.53
2018-01-03T16:49:41.963Z,981.58
2018-01-03T16:50:41.933Z,981.45
2018-01-03T16:52:34.666Z,981.46
2018-01-03T16:53:34.598Z,981.55
2018-01-03T16:55:26.447Z,981.40
2018-01-03T16:56:26.451Z,981.65
2018-01-03T16:58:18.240Z,981.59
2018-01-03T16:59:18.080Z,981.50
2018-01-03T17:01:09.947Z,981.60
2018-01-03T17:02:09.761Z,981.65
2018-01-03T17:04:01.637Z,981.74
2018-01-03T17:05:01.529Z,981.61
2018-01-03T17:06:53.349Z,981.56
2018-01-03T17:07:53.216Z,981.69
2018-01-03T17:09:45.048Z,981.68
2018-01-03T17:10:44.982Z,981.72
2018-01-03T17:12:36.846Z,981.64
2018-01-03T17:13:36.735Z,981.73
2018-01-03T17:15:28.528Z,981.64
2018-01-03T17:16:28.506Z,981.60
2018-01-03T17:18:20.373Z,981.62
2018-01-03T17:19:20.271Z,981.76
2018-01-03T17:21:12.045Z,981.67
2018-01-03T17:22:11.980Z,981.71
2018-01-03T17:24:03.716Z,981.65
2018-01-03T17:25:03.660Z,981.69
2018-01-03T17:26:55.410Z,981.69
2018-01-03T17:27:55.333Z,981.55
2018-01-03T17:29:48.221Z,981.76
2018-01-03T17:30:48.178Z,981.67
2018-01-03T17:32:40.035Z,981.71
2018-01-03T17:33:39.913Z,981.67
2018-01-03T17:35:31.745Z,981.55
2018-01-03T17:36:31.718Z,981.75
2018-01-03T17:38:24.083Z,981.72
2018-01-03T17:39:23.515Z,981.66
2018-01-03T17:41:15.337Z,981.74
2018-01-03T17:42:15.297Z,981.71
2018-01-03T17:44:07.057Z,981.59
2018-01-03T17:45:06.975Z,981.71
2018-01-03T17:46:58.815Z,981.84
2018-01-03T17:47:58.741Z,981.74
2018-01-03T17:49:50.482Z,981.69